Time;durP1;ratioP1;P1;durP2;ratioP2;P2;SDS_P1;SDS_P2;PMS_P1;PMS_P2;Temp;Humidity;BMP_temperature;BMP_pressure;BME280_temperature;BME280_humidity;BME280_pressure;Samples;Min_cycle;Max_cycle;Signal;HPM_P1;HPM_P2
2022/05/23 00:00:13;;;;;;;15.20;8.87;;;;;;;1.95;70.77;99537.92;1800723;78;20952;-60
2022/05/23 00:02:51;;;;;;;13.35;7.55;;;;;;;1.92;70.83;99529.80;1799773;78;20906;-60
2022/05/23 00:05:18;;;;;;;12.80;8.55;;;;;;;1.92;70.96;99536.68;1789244;78;20941;-60
2022/05/23 00:07:48;;;;;;;12.53;8.33;;;;;;;1.89;70.96;99535.00;1796371;78;20936;-60
2022/05/23 00:10:18;;;;;;;11.80;8.45;;;;;;;1.85;71.05;99537.22;1792412;79;21520;-60
2022/05/23 00:12:45;;;;;;;16.82;9.25;;;;;;;1.82;71.13;99537.27;1801262;78;20969;-60
2022/05/23 00:15:12;;;;;;;12.43;8.80;;;;;;;1.83;71.22;99536.83;1797125;79;21852;-60
2022/05/23 00:17:39;;;;;;;;;;;;;;;1.84;71.28;99525.20;1799230;79;20887;-60
2022/05/23 00:20:10;;;;;;;14.25;9.23;;;;;;;1.86;71.40;99531.19;1802577;78;20111;-61
2022/05/23 00:22:37;;;;;;;13.32;8.60;;;;;;;1.87;71.39;99530.30;1799598;79;21056;-61
2022/05/23 00:25:07;;;;;;;13.90;8.43;;;;;;;1.92;71.45;99525.94;1798900;78;21440;-60
2022/05/23 00:27:37;;;;;;;7.85;5.78;;;;;;;1.96;71.49;99522.45;1795440;78;20902;-60
2022/05/23 00:30:06;;;;;;;7.37;5.85;;;;;;;1.98;71.55;99525.84;1802551;78;21409;-60
2022/05/23 00:35:18;;;;;;;178.05;81.90;;;;;;;1.85;71.48;99532.07;1795973;78;21765;-61
2022/05/23 00:37:47;;;;;;;51.28;25.23;;;;;;;1.77;71.65;99536.03;1788171;78;20973;-60
2022/05/23 00:40:39;;;;;;;25.55;13.38;;;;;;;1.71;71.67;99528.82;1796980;79;21530;-60
2022/05/23 00:43:20;;;;;;;15.18;8.63;;;;;;;1.67;71.74;99529.75;1789829;78;20897;-59
2022/05/23 00:45:54;;;;;;;17.00;9.98;;;;;;;1.60;71.90;99524.26;1781247;79;20983;-60
2022/05/23 00:48:27;;;;;;;14.05;9.05;;;;;;;1.61;72.11;99520.83;1784955;78;21265;-60
2022/05/23 00:50:58;;;;;;;12.78;8.15;;;;;;;1.62;72.18;99527.67;1788672;79;20957;-60
2022/05/23 00:53:36;;;;;;;12.70;8.68;;;;;;;1.60;72.21;99522.56;1752990;79;20969;-61
2022/05/23 00:56:07;;;;;;;19.02;10.35;;;;;;;1.60;72.31;99529.00;1785223;79;20937;-60
2022/05/23 00:58:39;;;;;;;15.80;8.70;;;;;;;1.59;72.34;99529.84;1784875;79;20918;-60
2022/05/23 01:01:09;;;;;;;11.88;8.65;;;;;;;1.58;72.42;99527.31;1784795;79;21160;-60
2022/05/23 01:03:36;;;;;;;15.13;9.00;;;;;;;1.57;72.54;99521.32;1789799;79;21429;-60
2022/05/23 01:06:04;;;;;;;13.48;8.13;;;;;;;1.56;72.60;99523.02;1786415;79;20971;-60
2022/05/23 01:08:34;;;;;;;16.12;8.63;;;;;;;1.53;72.64;99525.64;1785223;79;20868;-60
2022/05/23 01:11:01;;;;;;;13.10;9.48;;;;;;;1.54;72.67;99531.62;1785582;79;20887;-60
2022/05/23 01:13:28;;;;;;;;;;;;;;;1.51;72.62;99532.55;1789060;79;21044;-60
2022/05/23 01:15:54;;;;;;;16.80;9.40;;;;;;;1.50;72.84;99533.41;1785267;79;20107;-60
2022/05/23 01:18:21;;;;;;;14.17;9.43;;;;;;;1.49;72.81;99531.71;1791755;79;20920;-60
2022/05/23 01:20:53;;;;;;;13.60;9.95;;;;;;;1.48;72.82;99538.15;1786429;79;22036;-60
2022/05/23 01:23:58;;;;;;;11.53;9.28;;;;;;;1.47;72.94;99545.47;1789410;79;21477;-60
2022/05/23 01:26:24;;;;;;;14.43;9.60;;;;;;;1.44;73.02;99533.48;1790661;79;21876;-60
2022/05/23 01:28:51;;;;;;;12.95;8.63;;;;;;;1.40;73.07;99538.27;1791261;79;21606;-60
2022/05/23 01:31:18;;;;;;;12.98;8.90;;;;;;;1.39;73.14;99536.55;1790223;79;20912;-61
2022/05/23 01:33:45;;;;;;;13.62;9.45;;;;;;;1.39;73.17;99533.98;1791011;79;20897;-59
2022/05/23 01:36:14;;;;;;;11.53;8.83;;;;;;;1.39;73.16;99532.69;1789687;79;20922;-59
2022/05/23 01:38:42;;;;;;;10.45;7.95;;;;;;;1.39;73.23;99535.27;1781720;79;21878;-60
2022/05/23 01:41:09;;;;;;;14.85;9.88;;;;;;;1.39;73.19;99530.13;1793420;79;20922;-60
2022/05/23 01:43:36;;;;;;;15.38;9.20;;;;;;;1.38;73.24;99532.29;1786459;79;20905;-60
2022/05/23 01:46:02;;;;;;;16.23;8.33;;;;;;;1.33;73.35;99535.35;1780501;79;21447;-61
2022/05/23 01:48:29;;;;;;;14.70;8.75;;;;;;;1.30;73.44;99540.53;1782741;79;20926;-60
2022/05/23 01:50:56;;;;;;;14.10;9.20;;;;;;;1.29;73.53;99533.70;1787303;79;22498;-60
2022/05/23 01:53:22;;;;;;;19.80;9.35;;;;;;;1.29;73.63;99531.98;1792891;79;21432;-59
2022/05/23 01:55:49;;;;;;;15.78;9.20;;;;;;;1.28;73.58;99533.27;1788995;79;21565;-60
2022/05/23 02:01:12;;;;;;;16.60;9.27;;;;;;;1.27;73.63;99534.15;1787401;78;21450;-60
2022/05/23 02:03:29;;;;;;;19.73;12.25;;;;;;;1.27;73.81;99524.70;1790337;79;22232;-60
2022/05/23 02:05:55;;;;;;;13.90;8.83;;;;;;;1.25;73.82;99527.72;1787697;79;20872;-60
2022/05/23 02:08:25;;;;;;;14.33;8.88;;;;;;;1.25;73.89;99526.88;1780893;79;20893;-60
2022/05/23 02:10:52;;;;;;;15.30;8.87;;;;;;;1.27;73.98;99527.72;1787908;78;20910;-60
2022/05/23 02:13:19;;;;;;;;;;;;;;;1.28;74.13;99530.69;1787464;79;21512;-60
2022/05/23 02:15:45;;;;;;;22.98;15.28;;;;;;;1.29;74.26;99522.97;1782431;79;20921;-61
2022/05/23 02:18:12;;;;;;;25.00;13.55;;;;;;;1.30;74.21;99527.67;1814181;77;20906;-60
2022/05/23 02:20:38;;;;;;;14.40;9.17;;;;;;;1.30;74.22;99521.24;1773391;79;21440;-61
2022/05/23 02:23:05;;;;;;;16.48;8.68;;;;;;;1.30;74.22;99519.95;1786438;78;21523;-60
2022/05/23 02:25:32;;;;;;;12.07;9.13;;;;;;;1.32;74.26;99523.38;1791152;78;20959;-60
2022/05/23 02:27:58;;;;;;;12.87;8.87;;;;;;;1.36;74.39;99528.87;1789912;78;21031;-60
2022/05/23 02:30:25;;;;;;;14.30;8.25;;;;;;;1.39;74.39;99514.69;1794739;78;20863;-60
2022/05/23 02:32:52;;;;;;;12.88;8.28;;;;;;;1.37;74.48;99521.56;1791009;79;21474;-60
2022/05/23 02:35:19;;;;;;;10.93;7.42;;;;;;;1.37;74.42;99516.42;1796470;79;20902;-60
2022/05/23 02:37:46;;;;;;;9.30;6.60;;;;;;;1.38;74.45;99516.01;1787841;78;20925;-60
2022/05/23 02:40:14;;;;;;;8.98;6.42;;;;;;;1.38;74.49;99516.01;1795609;78;21428;-60
2022/05/23 02:42:40;;;;;;;10.10;6.67;;;;;;;1.38;74.59;99514.28;1798493;78;20957;-60
2022/05/23 02:45:09;;;;;;;13.40;7.13;;;;;;;1.44;74.77;99523.20;1791212;78;20934;-60
2022/05/23 02:47:36;;;;;;;15.25;12.05;;;;;;;1.50;74.93;99523.11;1773742;79;20943;-60
2022/05/23 02:50:04;;;;;;;16.27;8.70;;;;;;;1.62;75.10;99518.66;1811290;77;20993;-61
2022/05/23 02:52:30;;;;;;;;;;;;;;;1.77;75.22;99522.32;1808280;77;21100;-60
2022/05/23 02:54:57;;;;;;;14.75;7.62;;;;;;;1.94;75.40;99521.63;1808533;78;20118;-60
2022/05/23 02:57:24;;;;;;;12.35;8.18;;;;;;;2.10;75.31;99518.38;1806890;78;20874;-60
2022/05/23 02:59:51;;;;;;;17.15;11.88;;;;;;;2.39;75.52;99526.90;1807982;77;20906;-60
2022/05/23 03:05:03;;;;;;;39.83;24.37;;;;;;;3.07;75.14;99520.05;1808298;79;21876;-60
2022/05/23 03:07:30;;;;;;;63.25;14.63;;;;;;;3.09;75.02;99523.90;1805013;78;21413;-60
2022/05/23 03:09:56;;;;;;;80.07;11.40;;;;;;;3.11;75.11;99519.56;1772099;77;20953;-60
2022/05/23 03:12:23;;;;;;;59.27;10.70;;;;;;;3.19;75.33;99525.39;1808964;77;20950;-60
2022/05/23 03:14:52;;;;;;;83.13;10.63;;;;;;;3.26;75.43;99511.50;1811682;77;20895;-60
2022/05/23 03:17:18;;;;;;;102.72;11.15;;;;;;;3.34;75.37;99514.77;1804071;78;21835;-60
2022/05/23 03:19:45;;;;;;;147.20;11.53;;;;;;;3.45;75.53;99521.45;1802942;78;20875;-60
2022/05/23 03:27:45;;;;;;;71.05;19.02;;;;;;;3.89;75.81;99514.42;1800195;77;20934;-61
2022/05/23 03:30:12;;;;;;;44.73;14.68;;;;;;;4.21;75.87;99522.26;1805340;77;21034;-61
2022/05/23 03:32:39;;;;;;;24.87;8.55;;;;;;;4.52;75.86;99521.48;1806547;78;20853;-61
2022/05/23 03:35:08;;;;;;;40.35;8.55;;;;;;;4.85;75.68;99509.86;1811338;78;21488;-60
2022/05/23 03:37:35;;;;;;;83.65;8.65;;;;;;;5.16;75.56;99514.57;1803490;78;21523;-60
2022/05/23 03:40:05;;;;;;;28.12;7.22;;;;;;;5.28;75.09;99508.64;1798219;79;21445;-60
2022/05/23 03:42:33;;;;;;;25.02;8.60;;;;;;;5.28;74.87;99512.52;1804314;79;21833;-60
2022/05/23 03:45:00;;;;;;;24.10;7.17;;;;;;;5.32;74.91;99507.64;1804489;78;21443;-60
2022/05/23 03:47:27;;;;;;;32.15;8.40;;;;;;;5.40;74.75;99512.16;1798536;78;21010;-60
2022/05/23 03:49:53;;;;;;;41.93;17.50;;;;;;;5.58;74.99;99516.80;1817915;78;20971;-61
2022/05/23 03:52:20;;;;;;;32.55;8.43;;;;;;;5.78;74.95;99517.94;1815753;78;20872;-60
2022/05/23 03:54:47;;;;;;;14.35;7.65;;;;;;;5.94;74.87;99515.30;1807186;78;22079;-61
2022/05/23 03:57:14;;;;;;;17.98;7.22;;;;;;;6.18;74.79;99508.91;1815835;78;21449;-60
2022/05/23 03:59:40;;;;;;;21.95;6.40;;;;;;;6.64;75.00;99508.69;1817623;78;20928;-61
2022/05/23 04:02:07;;;;;;;44.40;6.77;;;;;;;7.26;74.89;99501.69;1796296;79;21023;-62
2022/05/23 04:04:34;;;;;;;43.80;7.03;;;;;;;7.80;74.62;99508.27;1817174;78;20900;-62
2022/05/23 04:07:04;;;;;;;33.15;6.28;;;;;;;8.36;74.72;99504.74;1795482;79;21034;-62
2022/05/23 04:09:32;;;;;;;46.83;7.33;;;;;;;9.05;74.75;99506.56;1810066;78;21480;-61
2022/05/23 04:11:59;;;;;;;47.78;7.17;;;;;;;10.03;75.40;99494.18;1793999;78;20833;-61
2022/05/23 04:14:27;;;;;;;53.73;6.97;;;;;;;11.06;74.92;99493.36;1811160;78;26322;-61
2022/05/23 04:16:54;;;;;;;66.50;7.83;;;;;;;11.93;74.67;99491.70;1824155;78;21463;-61
2022/05/23 04:19:22;;;;;;;22.20;6.65;;;;;;;12.96;74.35;99485.22;1823674;78;21210;-61
2022/05/23 04:21:49;;;;;;;21.35;6.37;;;;;;;14.13;75.23;99477.88;1785042;78;20898;-62
2022/05/23 04:24:17;;;;;;;;;;;;;;;15.43;74.17;99463.25;1813960;78;20880;-62
2022/05/23 04:26:44;;;;;;;7.05;5.95;;;;;;;16.69;73.41;99463.19;1797488;78;20097;-62
2022/05/23 04:29:11;;;;;;;10.63;6.45;;;;;;;17.73;72.79;99463.84;1792338;78;21442;-62
2022/05/23 04:31:38;;;;;;;9.75;6.75;;;;;;;18.56;72.49;99469.77;1807411;78;21024;-62
2022/05/23 04:36:51;;;;;;;10.75;6.37;;;;;;;19.48;69.54;99464.98;1790119;78;21467;-62
2022/05/23 04:39:18;;;;;;;5.62;5.10;;;;;;;20.10;71.00;99461.19;1811137;78;21043;-61
2022/05/23 04:41:46;;;;;;;6.00;5.40;;;;;;;20.38;67.55;99461.31;1792184;78;20961;-62
2022/05/23 04:44:12;;;;;;;6.35;5.65;;;;;;;20.40;69.20;99458.03;1810435;78;21035;-62
2022/05/23 04:49:44;;;;;;;7.45;4.92;;;;;;;21.78;68.74;99455.05;1811271;78;20945;-61
2022/05/23 04:52:13;;;;;;;7.70;5.30;;;;;;;22.21;67.79;99455.30;1786846;78;20958;-62
2022/05/23 04:54:42;;;;;;;15.50;6.55;;;;;;;22.44;66.95;99458.33;1803686;78;20876;-62
2022/05/23 04:57:11;;;;;;;14.28;6.20;;;;;;;22.82;66.69;99453.08;1795821;79;21029;-62
2022/05/23 04:59:38;;;;;;;10.63;5.80;;;;;;;22.97;65.53;99450.20;1809601;77;20932;-63
2022/05/23 05:02:05;;;;;;;8.00;4.90;;;;;;;23.57;65.88;99456.42;1794296;78;20934;-63
2022/05/23 05:04:33;;;;;;;6.40;5.35;;;;;;;23.74;64.17;99459.49;1802421;78;20930;-64
2022/05/23 05:07:00;;;;;;;11.40;5.75;;;;;;;23.96;64.75;99459.87;1817971;78;20904;-64
2022/05/23 05:09:29;;;;;;;8.88;5.78;;;;;;;24.43;64.61;99457.88;1785368;78;21037;-63
2022/05/23 05:11:56;;;;;;;7.55;5.10;;;;;;;24.71;62.88;99460.54;1812334;78;20894;-63
2022/05/23 05:14:23;;;;;;;7.22;4.58;;;;;;;24.69;62.38;99457.70;1802919;77;20852;-63
2022/05/23 05:16:51;;;;;;;6.50;4.62;;;;;;;24.77;61.67;99467.03;1801384;78;21475;-62
2022/05/23 05:19:19;;;;;;;8.83;4.45;;;;;;;24.90;61.27;99461.14;1788271;78;21496;-63
2022/05/23 05:21:46;;;;;;;4.90;3.42;;;;;;;25.17;61.20;99455.92;1771176;79;21044;-63
2022/05/23 05:24:13;;;;;;;4.33;2.90;;;;;;;25.11;59.47;99455.25;1805739;77;20980;-62
2022/05/23 05:26:39;;;;;;;4.55;3.35;;;;;;;25.08;59.00;99447.08;1808959;78;20935;-63
2022/05/23 05:29:06;;;;;;;5.80;3.40;;;;;;;24.77;59.59;99447.84;1802785;77;21366;-63
2022/05/23 05:31:53;;;;;;;8.80;3.35;;;;;;;25.20;59.83;99450.23;1765803;80;20910;-63
2022/05/23 05:34:33;;;;;;;4.50;2.55;;;;;;;25.49;59.02;99445.60;1792654;78;21799;-63
2022/05/23 05:37:06;;;;;;;4.75;2.98;;;;;;;25.74;57.71;99451.64;1788909;79;20887;-63
2022/05/23 05:39:36;;;;;;;3.98;3.00;;;;;;;25.78;57.30;99452.11;1789532;78;20938;-63
2022/05/23 05:42:26;;;;;;;3.27;2.37;;;;;;;25.88;56.96;99454.09;1795416;78;20910;-63
2022/05/23 05:45:02;;;;;;;7.22;2.75;;;;;;;25.98;56.54;99451.98;1780865;79;21481;-63
2022/05/23 05:47:33;;;;;;;7.20;2.55;;;;;;;26.20;56.42;99452.99;1772455;80;21198;-63
2022/05/23 05:50:05;;;;;;;5.22;2.27;;;;;;;26.47;55.70;99451.59;1774403;80;20937;-63
2022/05/23 05:52:33;;;;;;;4.50;2.65;;;;;;;26.43;54.60;99450.28;1772298;80;20922;-64
2022/05/23 05:55:06;;;;;;;4.33;2.30;;;;;;;26.29;54.64;99448.41;1772114;79;20910;-64
2022/05/23 05:57:33;;;;;;;5.20;1.87;;;;;;;26.49;54.29;99450.88;1774746;80;20986;-64
2022/05/23 06:00:00;;;;;;;3.50;1.87;;;;;;;26.97;54.48;99450.11;1774821;79;21101;-62
2022/05/23 06:02:27;;;;;;;2.85;1.60;;;;;;;27.14;52.88;99455.25;1772687;79;20970;-64
2022/05/23 06:04:53;;;;;;;3.80;1.70;;;;;;;27.29;53.21;99458.79;1774541;80;21484;-63
2022/05/23 06:12:55;;;;;;;3.10;1.65;;;;;;;27.51;51.35;99454.83;1773738;80;21796;-64
2022/05/23 06:15:21;;;;;;;2.30;1.20;;;;;;;26.44;48.38;99465.34;1773768;79;20950;-64
2022/05/23 06:17:50;;;;;;;2.58;1.20;;;;;;;26.01;48.03;99462.33;1775504;79;20899;-62
2022/05/23 06:20:17;;;;;;;1.95;1.12;;;;;;;25.31;47.68;99465.05;1771534;80;20978;-64
2022/05/23 06:22:43;;;;;;;4.72;1.80;;;;;;;25.20;49.39;99470.27;1747224;80;20948;-64
2022/05/23 06:25:11;;;;;;;2.17;1.60;;;;;;;25.63;48.58;99462.23;1772880;80;21081;-65
2022/05/23 06:27:39;;;;;;;4.10;1.75;;;;;;;25.24;47.92;99467.59;1745428;80;20912;-65
2022/05/23 06:30:09;;;;;;;3.87;1.70;;;;;;;25.11;47.67;99468.09;1777678;80;20926;-64
2022/05/23 06:32:36;;;;;;;13.20;1.82;;;;;;;24.87;47.51;99470.84;1773834;79;20938;-64
2022/05/23 06:35:09;;;;;;;3.33;1.85;;;;;;;24.79;47.10;99475.20;1780313;80;21476;-64
2022/05/23 06:37:36;;;;;;;4.37;1.32;;;;;;;24.76;46.70;99475.55;1779164;79;21030;-64
2022/05/23 06:40:06;;;;;;;4.15;1.60;;;;;;;24.55;46.59;99473.40;1779759;79;21464;-64
2022/05/23 06:42:35;;;;;;;2.80;1.50;;;;;;;24.42;46.36;99476.21;1777017;79;21029;-64
2022/05/23 06:45:04;;;;;;;5.17;1.82;;;;;;;24.40;45.76;99475.56;1790612;78;20956;-63
2022/05/23 06:47:35;;;;;;;4.08;1.70;;;;;;;24.34;45.97;99481.90;1786283;78;21009;-63
2022/05/23 06:50:04;;;;;;;2.20;1.45;;;;;;;24.46;45.85;99478.92;1766660;80;21004;-65
2022/05/23 06:52:31;;;;;;;4.25;1.50;;;;;;;24.37;44.85;99477.20;1781211;78;20855;-64
2022/05/23 06:54:58;;;;;;;4.03;1.50;;;;;;;24.02;45.39;99484.53;1782034;78;20887;-64
2022/05/23 06:57:24;;;;;;;5.58;1.70;;;;;;;24.02;44.89;99485.37;1780337;78;21435;-64
2022/05/23 06:59:51;;;;;;;2.47;1.20;;;;;;;23.97;45.58;99484.19;1812074;78;20928;-63
2022/05/23 07:02:18;;;;;;;4.10;1.77;;;;;;;24.02;44.92;99488.54;1771462;80;21219;-63
2022/05/23 07:12:59;;;;;;;4.67;2.00;;;;;;;23.75;44.43;99484.31;1796773;78;21444;-64
2022/05/23 07:15:27;;;;;;;11.57;1.50;;;;;;;23.99;44.72;99490.20;1792090;78;21519;-64
2022/05/23 07:17:54;;;;;;;3.65;1.52;;;;;;;23.78;44.21;99487.51;1790385;79;21458;-62
2022/05/23 07:20:21;;;;;;;9.55;1.90;;;;;;;23.60;43.82;99488.08;1788267;78;21432;-62
2022/05/23 07:22:51;;;;;;;5.97;1.80;;;;;;;23.14;43.91;99487.58;1790479;79;21597;-62
2022/05/23 07:25:17;;;;;;;5.35;1.62;;;;;;;22.99;43.97;99493.49;1787858;78;20929;-63
2022/05/23 07:27:44;;;;;;;3.20;1.40;;;;;;;22.23;43.39;99493.22;1787771;79;20982;-63
2022/05/23 07:30:11;;;;;;;;;;;;;;;21.76;43.96;99490.27;1791425;78;20936;-63
2022/05/23 07:32:38;;;;;;;9.18;1.80;;;;;;;21.39;43.86;99499.61;1790197;78;20521;-62
2022/05/23 07:35:06;;;;;;;3.83;1.60;;;;;;;21.16;44.34;99496.47;1789263;78;21688;-62
2022/05/23 07:37:33;;;;;;;7.28;1.57;;;;;;;21.17;44.37;99491.03;1791884;79;20921;-62
2022/05/23 07:40:00;;;;;;;5.03;1.70;;;;;;;21.05;44.45;99492.17;1787424;79;21575;-62
2022/05/23 07:42:28;;;;;;;3.15;1.52;;;;;;;20.72;43.88;99489.05;1791314;78;21474;-62
2022/05/23 07:44:58;;;;;;;4.95;1.40;;;;;;;20.31;43.83;99494.19;1782751;78;20926;-62
2022/05/23 07:47:25;;;;;;;3.83;1.30;;;;;;;20.19;44.41;99494.80;1784649;78;21057;-62
2022/05/23 07:49:51;;;;;;;2.15;1.20;;;;;;;20.24;44.02;99489.92;1822249;78;21986;-62
2022/05/23 07:52:20;;;;;;;3.37;1.50;;;;;;;20.03;44.35;99486.59;1820122;78;21020;-62
2022/05/23 08:00:31;;;;;;;3.60;1.30;;;;;;;19.12;42.69;99477.82;1818320;77;20903;-62
2022/05/23 08:03:13;;;;;;;5.20;1.30;;;;;;;18.59;44.02;99472.64;1812668;78;21396;-62
2022/05/23 08:05:38;;;;;;;5.08;1.50;;;;;;;18.67;44.20;99478.95;1818915;78;21244;-64
2022/05/23 08:08:05;;;;;;;6.50;1.67;;;;;;;18.73;44.07;99474.95;1821245;77;21062;-64
2022/05/23 08:10:32;;;;;;;4.85;1.60;;;;;;;18.75;44.22;99480.98;1815183;78;20918;-64
2022/05/23 08:13:09;;;;;;;6.97;1.67;;;;;;;18.91;44.41;99478.71;1819711;78;20941;-63
2022/05/23 08:15:32;;;;;;;13.95;2.05;;;;;;;18.96;44.19;99471.68;1816231;78;21452;-64
2022/05/23 08:17:58;;;;;;;2.87;1.32;;;;;;;18.90;44.37;99471.72;1817734;78;21861;-64
2022/05/23 08:20:25;;;;;;;2.60;1.15;;;;;;;18.98;44.35;99477.20;1823883;78;20969;-63
2022/05/23 08:22:55;;;;;;;2.42;1.30;;;;;;;18.59;43.04;99483.22;1817633;78;21472;-64
2022/05/23 08:25:23;;;;;;;3.55;1.30;;;;;;;18.04;43.13;99480.73;1815928;78;20972;-64
2022/05/23 08:27:50;;;;;;;3.65;1.60;;;;;;;17.85;43.42;99473.47;1820559;78;20922;-64
2022/05/23 08:30:18;;;;;;;3.77;1.40;;;;;;;17.78;43.44;99481.48;1814960;78;21870;-63
2022/05/23 08:32:45;;;;;;;2.15;1.40;;;;;;;17.80;43.88;99476.95;1823242;78;20926;-65
2022/05/23 08:35:18;;;;;;;1.90;1.12;;;;;;;18.06;43.84;99478.78;1813095;78;20894;-66
2022/05/23 08:37:44;;;;;;;2.27;1.10;;;;;;;18.06;43.54;99479.64;1823822;78;20938;-65
2022/05/23 08:40:11;;;;;;;3.95;1.55;;;;;;;18.21;44.12;99483.30;1821665;78;20958;-65
2022/05/23 08:42:56;;;;;;;6.28;1.62;;;;;;;18.52;43.91;99475.80;1779170;78;21042;-66
2022/05/23 08:45:27;;;;;;;2.08;1.00;;;;;;;18.34;42.95;99470.72;1820509;78;20961;-63
2022/05/23 08:48:29;;;;;;;1.40;1.00;;;;;;;18.44;44.14;99466.36;1814667;78;20932;-63
2022/05/23 08:51:21;;;;;;;2.02;1.25;;;;;;;18.72;44.24;99465.34;1820265;78;20945;-65
2022/05/23 08:54:02;;;;;;;1.98;0.98;;;;;;;18.99;44.17;99463.02;1816141;78;20930;-64
2022/05/23 08:56:37;;;;;;;1.22;1.00;;;;;;;19.26;44.13;99449.66;1787944;78;21173;-65
2022/05/23 08:59:15;;;;;;;2.92;1.20;;;;;;;19.38;43.52;99447.28;1798814;78;21488;-65
2022/05/23 09:01:49;;;;;;;1.65;1.10;;;;;;;19.24;43.62;99445.02;1763035;78;21469;-65
2022/05/23 09:04:54;;;;;;;3.62;1.20;;;;;;;19.15;43.64;99440.50;1783722;77;20940;-65
2022/05/23 09:07:47;;;;;;;1.95;1.32;;;;;;;19.09;43.76;99451.63;1788181;79;20981;-64
2022/05/23 09:10:40;;;;;;;1.50;1.02;;;;;;;19.03;43.71;99443.73;1790428;79;21483;-64
2022/05/23 09:13:08;;;;;;;3.25;1.50;;;;;;;19.13;44.06;99437.14;1779800;79;20937;-66
2022/05/23 09:15:35;;;;;;;3.35;1.50;;;;;;;19.14;43.57;99434.38;1774606;79;20910;-65
2022/05/23 09:18:09;;;;;;;1.95;1.40;;;;;;;19.05;43.35;99418.48;1782309;79;20961;-65
2022/05/23 09:20:49;;;;;;;2.95;1.07;;;;;;;19.00;43.47;99417.05;1786153;80;21514;-65
2022/05/23 09:23:29;;;;;;;2.58;1.32;;;;;;;18.92;43.64;99422.17;1788380;80;21026;-65
2022/05/23 09:25:56;;;;;;;3.45;1.12;;;;;;;18.85;43.33;99423.69;1787358;78;20943;-65
2022/05/23 09:28:40;;;;;;;3.22;1.10;;;;;;;18.83;43.48;99426.95;1783766;79;20993;-65
2022/05/23 09:31:37;;;;;;;3.70;1.40;;;;;;;18.82;43.43;99427.06;1792326;79;20940;-64
2022/05/23 09:34:04;;;;;;;3.10;1.42;;;;;;;18.95;43.32;99423.23;1781794;79;20944;-64
2022/05/23 09:36:35;;;;;;;2.40;1.10;;;;;;;19.14;43.45;99421.64;1779796;79;20902;-65
2022/05/23 09:39:12;;;;;;;1.75;1.02;;;;;;;19.26;43.22;99421.87;1784308;79;20953;-64
2022/05/23 09:47:46;;;;;;;1.90;0.95;;;;;;;19.32;42.74;99410.73;1767091;79;20938;-64
2022/05/23 09:50:30;;;;;;;1.75;1.07;;;;;;;18.67;42.71;99410.20;1766298;80;21115;-64
2022/05/23 09:52:59;;;;;;;2.65;1.50;;;;;;;18.55;43.03;99406.80;1766105;79;21879;-64
2022/05/23 09:55:33;;;;;;;3.08;1.30;;;;;;;18.77;43.31;99401.03;1767151;79;20927;-64
2022/05/23 09:58:07;;;;;;;2.02;1.22;;;;;;;18.55;42.83;99403.33;1767369;80;20914;-64
2022/05/23 10:00:38;;;;;;;3.87;1.42;;;;;;;18.13;42.75;99403.83;1765406;79;20922;-64
2022/05/23 10:03:18;;;;;;;5.92;1.25;;;;;;;18.22;43.27;99399.92;1755001;80;21057;-65
2022/05/23 10:05:50;;;;;;;1.67;1.07;;;;;;;18.51;43.45;99396.61;1764915;80;20930;-64
2022/05/23 10:08:35;;;;;;;5.22;1.10;;;;;;;18.79;43.42;99397.75;1764218;80;20961;-64
2022/05/23 10:11:26;;;;;;;1.22;0.90;;;;;;;19.03;43.31;99389.98;1768022;79;20934;-64
2022/05/23 10:13:57;;;;;;;2.90;1.20;;;;;;;18.87;42.72;99389.98;1764571;79;20926;-64
2022/05/23 10:16:29;;;;;;;2.30;1.30;;;;;;;18.65;42.91;99396.75;1764348;80;21073;-63
2022/05/23 10:19:06;;;;;;;4.78;1.60;;;;;;;18.60;42.88;99393.20;1784672;79;20981;-66
2022/05/23 10:21:40;;;;;;;5.80;1.15;;;;;;;18.52;42.80;99388.56;1746886;80;20997;-64
2022/05/23 10:24:21;;;;;;;2.87;1.20;;;;;;;18.17;42.45;99388.06;1784045;80;21379;-66
2022/05/23 10:26:58;;;;;;;2.15;1.40;;;;;;;17.90;42.88;99385.45;1763629;79;20910;-64
2022/05/23 10:29:58;;;;;;;1.72;1.10;;;;;;;17.68;42.72;99385.86;1789071;79;22098;-66
2022/05/23 10:32:51;;;;;;;1.75;1.10;;;;;;;17.54;43.02;99391.44;1750104;80;20930;-64
2022/05/23 10:35:34;;;;;;;2.90;1.30;;;;;;;17.74;43.29;99387.65;1774888;79;20926;-63
2022/05/23 10:43:53;;;;;;;1.62;1.35;;;;;;;18.30;43.45;99392.67;1763027;79;21218;-64
2022/05/23 10:46:22;;;;;;;2.65;1.52;;;;;;;18.57;43.59;99390.82;1787042;78;21417;-64
2022/05/23 10:49:27;;;;;;;2.37;1.40;;;;;;;18.85;44.07;99378.73;1787315;79;20930;-64
2022/05/23 10:52:18;;;;;;;2.75;1.22;;;;;;;19.18;43.90;99378.03;1785786;78;20905;-63
2022/05/23 10:55:19;;;;;;;2.37;1.50;;;;;;;19.38;43.81;99369.64;1790217;78;21465;-64
2022/05/23 10:58:02;;;;;;;2.65;1.70;;;;;;;19.24;43.46;99362.96;1780329;79;21654;-64
2022/05/23 11:00:49;;;;;;;6.92;1.72;;;;;;;19.10;43.74;99367.29;1786661;79;21479;-63
2022/05/23 11:03:50;;;;;;;2.62;1.70;;;;;;;19.07;43.69;99359.63;1782649;78;20929;-64
2022/05/23 11:06:28;;;;;;;5.42;1.92;;;;;;;19.05;43.79;99366.39;1782119;78;21029;-63
2022/05/23 11:09:22;;;;;;;3.95;1.90;;;;;;;19.04;43.79;99361.22;1785419;78;21068;-63
2022/05/23 11:12:22;;;;;;;2.35;1.60;;;;;;;19.08;44.02;99357.34;1778817;79;21490;-63
2022/05/23 11:15:42;;;;;;;4.40;1.70;;;;;;;19.12;43.96;99350.80;1684037;83;21024;-64
2022/05/23 11:18:14;;;;;;;8.93;2.05;;;;;;;19.23;44.07;99340.92;1698691;83;20938;-63
2022/05/23 11:20:43;;;;;;;4.83;1.60;;;;;;;18.94;43.94;99339.55;1701276;82;21322;-63
2022/05/23 11:23:43;;;;;;;4.30;2.20;;;;;;;18.94;44.13;99346.17;1725729;80;20932;-64
2022/05/23 11:26:39;;;;;;;3.67;2.05;;;;;;;19.05;44.16;99347.04;1735357;80;21489;-64
2022/05/23 11:35:10;;;;;;;5.10;1.72;;;;;;;18.30;43.69;99335.86;1739286;80;21001;-64
2022/05/23 11:37:49;;;;;;;6.97;2.20;;;;;;;18.04;43.98;99330.98;1732235;80;20954;-63
2022/05/23 11:40:29;;;;;;;3.87;1.30;;;;;;;17.92;43.83;99336.45;1732484;80;21898;-64
2022/05/23 11:43:06;;;;;;;4.50;1.57;;;;;;;17.90;44.33;99331.31;1724414;80;22384;-64
2022/05/23 11:46:02;;;;;;;1.85;1.55;;;;;;;17.82;44.33;99331.11;1711442;80;20962;-65
2022/05/23 11:49:00;;;;;;;2.77;1.70;;;;;;;17.64;44.48;99326.38;1724080;80;21135;-64
2022/05/23 11:51:38;;;;;;;1.77;1.60;;;;;;;17.52;44.71;99337.92;1730243;80;21018;-64
2022/05/23 11:54:10;;;;;;;2.75;1.52;;;;;;;17.38;44.81;99336.41;1763318;80;21029;-64
2022/05/23 11:56:45;;;;;;;3.37;1.27;;;;;;;17.29;44.85;99331.06;1772790;79;20978;-63
2022/05/23 11:59:27;;;;;;;4.00;1.70;;;;;;;17.25;45.02;99333.58;1749597;79;20926;-64
2022/05/23 12:02:15;;;;;;;4.08;2.00;;;;;;;17.22;45.23;99334.20;1773657;80;20852;-63
2022/05/23 12:04:56;;;;;;;3.37;1.75;;;;;;;17.26;45.46;99331.31;1770940;80;21033;-64
2022/05/23 12:07:37;;;;;;;6.08;1.75;;;;;;;17.17;45.39;99339.50;1774392;79;20951;-64
2022/05/23 12:10:25;;;;;;;2.40;1.90;;;;;;;17.12;45.69;99334.58;1773601;80;20977;-64
2022/05/23 12:13:17;;;;;;;4.20;2.62;;;;;;;17.07;45.94;99338.06;1769531;80;20950;-63
2022/05/23 12:15:48;;;;;;;3.02;1.70;;;;;;;16.99;46.15;99328.60;1771250;79;20952;-64
2022/05/23 12:18:26;;;;;;;2.45;1.90;;;;;;;17.08;46.39;99325.22;1767871;79;20981;-63
2022/05/23 12:21:02;;;;;;;2.83;1.82;;;;;;;17.11;46.25;99328.95;1734743;80;44588;-64
2022/05/23 12:23:42;;;;;;;4.20;2.00;;;;;;;17.07;46.29;99327.52;1747962;80;20898;-63
2022/05/23 12:26:26;;;;;;;2.20;1.75;;;;;;;16.98;46.51;99326.45;1768348;80;21005;-64
2022/05/23 12:28:57;;;;;;;4.83;1.77;;;;;;;16.91;46.74;99325.25;1772440;78;20926;-63
2022/05/23 12:31:38;;;;;;;4.12;2.08;;;;;;;16.94;46.99;99316.27;1762236;80;20961;-62
2022/05/23 12:34:10;;;;;;;3.45;1.92;;;;;;;16.98;46.98;99320.34;1768291;78;21066;-62
2022/05/23 12:36:52;;;;;;;2.75;2.00;;;;;;;16.95;47.26;99291.59;1772370;79;20942;-64
2022/05/23 12:39:59;;;;;;;3.67;1.77;;;;;;;16.91;47.15;99298.05;1768194;80;21417;-63
2022/05/23 12:42:36;;;;;;;;;;;;;;;16.78;47.38;99296.41;1775981;80;20875;-63
2022/05/23 12:46:00;;;;;;;4.85;1.60;;;;;;;16.65;47.49;99293.52;1770510;79;20098;-63
2022/05/23 12:48:51;;;;;;;4.42;1.90;;;;;;;16.61;47.77;99291.61;1716373;82;22012;-63
2022/05/23 12:51:35;;;;;;;3.22;2.10;;;;;;;16.77;47.96;99296.52;1716473;82;20951;-63
2022/05/23 12:54:10;;;;;;;5.65;2.30;;;;;;;16.68;47.81;99305.97;1689363;82;21043;-66
2022/05/23 12:56:43;;;;;;;3.45;1.82;;;;;;;16.61;47.75;99292.92;1720386;82;21984;-64